Sunday, June 17, 2018, 10:03 PM EDT
Back to Local

KSFZ, Pawtucket, North Central State Airport

Location: Smithfield, RI, United States Lat: 41.917
Local Time: 10:03 PM EDT ( 2:03 GMT) Lon: -71.5
Time Zone: US/Eastern Elev: 439 ft

Show me the last for .
Show Decoded

2018-06-17 20:56 METAR KSFZ 180056Z AUTO VRB05KT 10SM CLR 22/12 A3007 RMK AO2 SLP127 T02220122 =
2018-06-17 19:56 METAR KSFZ 172356Z AUTO VRB05KT 10SM CLR 24/13 A3008 RMK AO2 SLP129 T02390133
                 10306 20239 53003 =
2018-06-17 18:56 METAR KSFZ 172256Z AUTO 21007KT 170V260 10SM CLR 27/13 A3007 RMK AO2 SLP128
                 T02670133 =
2018-06-17 17:56 METAR KSFZ 172156Z AUTO VRB04KT 10SM CLR 28/14 A3007 RMK AO2 SLP126 T02780144 =
2018-06-17 16:56 METAR KSFZ 172056Z AUTO VRB06KT 10SM CLR 29/15 A3007 RMK AO2 SLP126 T02890150
                 53002 =
2018-06-17 15:56 METAR KSFZ 171956Z AUTO VRB06KT 10SM CLR 29/14 A3007 RMK AO2 SLP126 T02890144 =
2018-06-17 14:56 METAR KSFZ 171856Z AUTO VRB03KT 10SM CLR 29/14 A3006 RMK AO2 SLP124 T02940139 =
2018-06-17 13:56 METAR KSFZ 171756Z AUTO 27006KT 10SM CLR 29/13 A3006 RMK AO2 SLP124 T02940128
                 10300 20211 58014 =
2018-06-17 12:56 METAR KSFZ 171656Z AUTO VRB04KT 10SM CLR 29/13 A3008 RMK AO2 SLP129 T02890128 =
2018-06-17 11:56 METAR KSFZ 171556Z AUTO VRB03KT 10SM CLR 28/13 A3009 RMK AO2 SLP134 T02830133 =
2018-06-17 10:56 METAR KSFZ 171456Z AUTO VRB04KT 10SM CLR 27/13 A3010 RMK AO2 SLP139 T02720133
                 51011 =
2018-06-17 09:56 METAR KSFZ 171356Z AUTO 06004KT 10SM CLR 27/15 A3009 RMK AO2 SLP135 T02670150 =
2018-06-17 08:56 METAR KSFZ 171256Z AUTO 34003KT 10SM CLR 24/15 A3008 RMK AO2 SLP132 T02390150 =
2018-06-17 07:56 METAR KSFZ 171156Z AUTO VRB03KT 10SM CLR 21/14 A3007 RMK AO2 SLP128 T02110144
                 10211 20133 51010 =
2018-06-17 06:56 METAR KSFZ 171056Z AUTO 00000KT 10SM CLR 19/13 A3006 RMK AO2 SLP125 T01890133 =
2018-06-17 05:56 METAR KSFZ 170956Z AUTO 00000KT 10SM CLR 15/12 A3006 RMK AO2 SLP123 T01500117 =
2018-06-17 04:56 METAR KSFZ 170856Z AUTO 00000KT 10SM CLR 14/11 A3004 RMK AO2 SLP117 T01440111
                 53005 =
2018-06-17 03:56 METAR KSFZ 170756Z AUTO 00000KT 10SM CLR 14/12 A3003 RMK AO2 SLP115 T01390117 =
2018-06-17 02:56 METAR KSFZ 170656Z AUTO 00000KT 10SM CLR 14/12 A3003 RMK AO2 SLP112 T01440117 =
2018-06-17 01:56 METAR KSFZ 170556Z AUTO 23003KT 10SM CLR 14/12 A3002 RMK AO2 SLP112 T01440122
                 10222 20139 51001 =
2018-06-17 00:56 METAR KSFZ 170456Z AUTO 00000KT 10SM CLR 15/12 A3002 RMK AO2 SLP111 T01500122
                 402720106 =
2018-06-16 23:56 METAR KSFZ 170356Z AUTO 00000KT 10SM CLR 15/13 A3003 RMK AO2 SLP113 T01500128 =
2018-06-16 22:56 METAR KSFZ 170256Z AUTO 22003KT 10SM CLR 17/13 A3002 RMK AO2 SLP111 T01670133
                 51018 =

Support USWX by starting your Amazon purchase here.